Warning: Javascript must be enabled to use all the features on this page!


Page Loading - Please Wait...

Click to hideNews Bulletins

Peak Streamflow for the Nation

USGS 04040500 STURGEON RIVER NEAR SIDNAW, MI

Baraga County, Michigan
Hydrologic Unit Code 04020104
Latitude  46°35'03", Longitude  88°34'33" NAD27
Drainage area 171  square miles
Gage datum 1,214.52 feet above NAVD88
Output formats
Table
Graph
Tab-separated file
peakfq (watstore) format
Reselect output format
Water
Year
Date Gage
Height
(feet)
Stream-
flow
(cfs)
1913 1913-04-24   3,1801
1914 1914-04-29   3,0501
1915 1915-04-17   1,4101
1943 1943-05-07 10.15 3,280
1944 1944-06-06 10.18 3,160
1945 1945-03-27 9.22 2,190
1946 1946-03-23 7.45 1,040
1947 1947-05-01 9.31 2,430
1948 1948-04-28 7.16 975
1949 1949-05-07 9.28 2,430
1950 1950-05-10 9.49 2,520
1951 1951-04-30 10.35 3,670
1952 1952-04-20 10.03 3,260
1953 1953-07-02 8.41 1,960
1954 1954-04-16 9.73 2,960
1955 1955-04-14 9.22 2,500
1956 1956-04-12 7.24 1,170
1957 1957-04-21 10.40 3,670
1958 1958-04-17 7.89 1,630
1959 1959-04-18 8.68 2,120
1960 1960-04-24 11.63 4,630
1961 1961-04-22 8.63 2,080
1962 1962-04-26 7.48 1,330
1963 1963-04-04 9.15 2,460
1964 1964-04-18 8.77 2,180
1965 1965-05-09 9.63 2,840
1966 1966-04-25 8.76 2,170
1967 1967-04-18 9.02 2,360
1968 1968-07-16 9.76 3,070
1969 1969-04-17 8.75 2,260
1970 1970-04-28 6.76 930
1971 1971-04-19 8.80 2,500
1972 1972-05-02 9.04 2,890
1973 1973-05-10 8.20 2,130
1974 1974-04-23 8.12 1,800
1975 1975-05-05 8.18 1,850
1976 1976-04-17 8.81 2,680
1977 1977-04-16 8.32 2,240
1978 1978-04-29 7.56 1,470
1979 1979-04-26 9.52 3,320
1980 1980-04-22 7.37 1,390
1981 1981-04-04 7.64 1,680
1982 1982-04-26 8.90 2,760
1983 1983-04-28 7.82 1,830
1984 1984-04-15 7.72 1,750
1985 1985-04-20 11.07 4,570
1986 1985-10-05 8.63 2,170
1987 1987-08-13 7.01 1,130
1988 1988-04-08 8.42 2,080
1989 1989-04-26 7.67 1,530
1990 1990-03-16 7.51 1,430
1991 1991-04-09 8.35 2,020
1992 1992-04-22 8.58 2,210
1993 1993-05-05 7.00 1,120
1994 1994-04-27 7.35 1,330
1995 1995-04-25 6.37 808
1996 1996-05-20 8.84 2,430
1997 1997-04-06 7.96 1,730
1998 1998-03-30 8.16 1,880
1999 1999-05-26 9.25 2,800
2000 2000-03-27 6.93 1,090
2001 2001-04-16 8.25 1,960
2002 2002-04-17 11.44 4,990
2003 2003-05-12 9.15 2,710
2004 2004-04-20 9.68 3,270
2005 2005-04-07 8.71 2,490
2006 2005-10-07 7.50 1,580
2007 2007-03-28 7.12 1,330
2008 2008-04-23 8.79 2,520
2009 2009-04-25 7.73 1,710
2010 2010-09-25 7.63 1,650
2011 2011-04-12 7.56 1,620
2012 2012-03-20 7.89 1,860
2013 2013-05-01 9.98 3,600
2014 2014-05-10 7.84 1,680
2015 2015-04-14 7.90 1,720
2016 2016-03-16 6.97 1,150
2017 2017-04-11 7.00 1,170
2018 2018-05-03 7.54 1,500
2019 2019-04-22 10.12 3,980
2020 2020-04-30 7.54 1,690
?
  Peak Streamflow Qualification Codes.